Time;durP1;ratioP1;P1;durP2;ratioP2;P2;SDS_P1;SDS_P2;PMS_P1;PMS_P2;Temp;Humidity;BMP_temperature;BMP_pressure;BME280_temperature;BME280_humidity;BME280_pressure;Samples;Min_cycle;Max_cycle;Signal;HPM_P1;HPM_P2
2022/04/06 00:00:08;;;;;;;6.60;4.13;;;6.70;99.90;;;;;;5071405;28;20209;-69
2022/04/06 00:02:35;;;;;;;6.77;4.80;;;6.70;99.90;;;;;;5072092;28;20251;-68
2022/04/06 00:05:01;;;;;;;9.07;4.80;;;6.70;99.90;;;;;;5074601;28;20251;-68
2022/04/06 00:07:28;;;;;;;7.53;4.87;;;6.70;99.90;;;;;;5070685;28;20201;-69
2022/04/06 00:09:55;;;;;;;8.80;5.27;;;6.70;99.90;;;;;;5073547;28;20209;-68
2022/04/06 00:12:24;;;;;;;6.97;4.63;;;6.70;99.90;;;;;;5072097;28;20594;-68
2022/04/06 00:14:51;;;;;;;7.27;4.70;;;6.60;99.90;;;;;;5073363;28;20247;-68
2022/04/06 00:17:18;;;;;;;6.50;4.43;;;6.70;99.90;;;;;;5073605;28;20206;-68
2022/04/06 00:19:44;;;;;;;8.07;5.20;;;6.70;99.90;;;;;;5068463;28;20273;-68
2022/04/06 00:22:11;;;;;;;8.40;5.00;;;6.70;99.90;;;;;;5072331;28;20225;-68
2022/04/06 00:24:38;;;;;;;7.57;5.43;;;6.70;99.90;;;;;;5072080;28;20223;-69
2022/04/06 00:27:05;;;;;;;7.47;5.43;;;6.70;99.90;;;;;;5072765;28;20209;-68
2022/04/06 00:29:33;;;;;;;9.47;5.77;;;6.70;99.90;;;;;;5069580;28;20210;-69
2022/04/06 00:32:00;;;;;;;7.37;5.10;;;6.70;99.90;;;;;;5069077;28;20210;-68
2022/04/06 00:37:08;;;;;;;8.17;5.67;;;6.80;99.90;;;;;;5073216;28;20204;-69
2022/04/06 00:39:35;;;;;;;6.80;5.63;;;6.70;99.90;;;;;;5063096;28;20293;-68
2022/04/06 00:42:02;;;;;;;8.20;6.13;;;6.70;99.90;;;;;;5070087;28;20630;-68
2022/04/06 00:44:28;;;;;;;8.93;6.40;;;6.70;99.90;;;;;;5071068;28;20225;-68
2022/04/06 00:46:57;;;;;;;7.73;5.47;;;6.80;99.90;;;;;;5071512;28;20612;-68
2022/04/06 00:49:23;;;;;;;8.33;6.00;;;6.80;99.90;;;;;;5072249;28;20241;-68
2022/04/06 00:51:51;;;;;;;8.87;6.07;;;6.70;99.90;;;;;;5073316;28;20612;-68
2022/04/06 00:54:22;;;;;;;8.73;5.90;;;6.70;99.90;;;;;;5069624;28;20227;-68
2022/04/06 00:56:50;;;;;;;9.17;6.23;;;6.70;99.90;;;;;;5067376;28;20216;-68
2022/04/06 00:59:17;;;;;;;7.80;5.70;;;6.80;99.90;;;;;;5071084;28;20636;-69
2022/04/06 01:01:46;;;;;;;7.60;5.50;;;6.80;99.90;;;;;;5073991;28;20221;-69
2022/04/06 01:04:14;;;;;;;8.53;5.87;;;6.80;99.90;;;;;;5061864;28;20232;-69
2022/04/06 01:06:41;;;;;;;7.67;5.67;;;6.80;99.90;;;;;;5072936;28;20404;-69
2022/04/06 01:09:08;;;;;;;8.20;5.63;;;6.80;99.90;;;;;;5071035;28;20209;-68
2022/04/06 01:11:35;;;;;;;7.90;5.73;;;6.80;99.90;;;;;;5054477;28;20206;-68
2022/04/06 01:14:02;;;;;;;8.27;5.70;;;6.80;99.90;;;;;;5058644;28;20226;-69
2022/04/06 01:16:29;;;;;;;8.70;5.70;;;6.80;99.90;;;;;;5071450;28;20669;-68
2022/04/06 01:18:56;;;;;;;7.27;6.10;;;6.80;99.90;;;;;;5074384;28;20199;-69
2022/04/06 01:21:24;;;;;;;8.30;6.57;;;6.80;99.90;;;;;;5074059;28;20283;-69
2022/04/06 01:23:52;;;;;;;7.60;6.20;;;6.80;99.90;;;;;;5074054;28;20778;-68
2022/04/06 01:26:20;;;;;;;8.17;6.60;;;6.80;99.90;;;;;;5071189;28;20205;-68
2022/04/06 01:28:47;;;;;;;8.83;6.23;;;6.80;99.90;;;;;;5063005;28;20221;-69
2022/04/06 01:31:14;;;;;;;7.77;5.83;;;6.80;99.90;;;;;;5060498;28;20205;-68
2022/04/06 01:33:41;;;;;;;9.60;6.77;;;6.70;99.90;;;;;;5071089;28;20288;-69
2022/04/06 01:36:08;;;;;;;8.87;6.33;;;6.80;99.90;;;;;;5073104;28;20307;-68
2022/04/06 01:38:35;;;;;;;9.57;6.47;;;6.80;99.90;;;;;;5069505;28;20293;-68
2022/04/06 01:41:04;;;;;;;9.27;6.57;;;6.80;99.90;;;;;;5064712;28;20654;-69
2022/04/06 01:43:31;;;;;;;9.23;6.63;;;6.80;99.90;;;;;;5073268;28;20686;-68
2022/04/06 01:45:59;;;;;;;8.57;6.40;;;6.80;99.90;;;;;;5073407;28;20331;-69
2022/04/06 01:48:26;;;;;;;6.70;6.00;;;6.80;99.90;;;;;;5073459;28;20209;-68
2022/04/06 01:53:37;;;;;;;8.70;6.97;;;6.80;99.90;;;;;;5068653;28;20212;-68
2022/04/06 01:56:05;;;;;;;9.93;6.83;;;6.80;99.90;;;;;;5062694;28;20560;-69
2022/04/06 01:58:32;;;;;;;8.00;6.87;;;6.80;99.90;;;;;;5055489;28;20862;-68
2022/04/06 02:00:59;;;;;;;9.20;6.60;;;6.80;99.90;;;;;;5075094;28;20215;-68
2022/04/06 02:03:26;;;;;;;9.83;6.63;;;6.80;99.90;;;;;;5076835;28;20225;-68
2022/04/06 02:05:53;;;;;;;8.17;6.87;;;6.80;99.90;;;;;;5075776;28;20303;-68
2022/04/06 02:08:20;;;;;;;8.13;6.83;;;6.80;99.90;;;;;;5074736;28;20236;-68
2022/04/06 02:10:47;;;;;;;9.97;7.30;;;6.80;99.90;;;;;;5063726;28;20296;-68
2022/04/06 02:13:16;;;;;;;9.10;6.50;;;6.80;99.90;;;;;;5077159;28;20205;-69
2022/04/06 02:15:42;;;;;;;8.67;6.53;;;6.80;99.90;;;;;;5078182;28;20240;-68
2022/04/06 02:18:09;;;;;;;9.50;6.17;;;6.80;99.90;;;;;;5076597;28;20213;-69
2022/04/06 02:20:36;;;;;;;8.60;6.73;;;6.80;99.90;;;;;;5076612;28;20233;-68
2022/04/06 02:23:04;;;;;;;8.07;6.33;;;6.70;99.90;;;;;;5068723;28;20214;-68
2022/04/06 02:25:31;;;;;;;9.60;6.87;;;6.70;99.90;;;;;;5075986;28;20240;-68
2022/04/06 02:27:58;;;;;;;7.80;6.70;;;6.80;99.90;;;;;;5075000;28;20209;-68
2022/04/06 02:30:26;;;;;;;10.23;7.57;;;6.70;99.90;;;;;;5075026;28;20254;-70
2022/04/06 02:32:53;;;;;;;11.70;7.97;;;6.80;99.90;;;;;;5076751;28;20218;-69
2022/04/06 02:35:20;;;;;;;11.27;8.00;;;6.80;99.90;;;;;;5075966;28;20233;-68
2022/04/06 02:37:47;;;;;;;10.57;7.07;;;6.80;99.90;;;;;;5060159;28;20233;-68
2022/04/06 02:40:15;;;;;;;10.93;6.50;;;6.80;99.90;;;;;;5061844;28;20247;-68
2022/04/06 02:42:43;;;;;;;7.67;6.53;;;6.80;99.90;;;;;;5076211;28;20304;-68
2022/04/06 02:45:10;;;;;;;7.13;5.50;;;6.70;99.90;;;;;;5076370;28;20240;-68
2022/04/06 02:47:38;;;;;;;8.13;5.90;;;6.70;99.90;;;;;;5073910;28;20271;-68
2022/04/06 02:50:06;;;;;;;10.07;6.60;;;6.60;99.90;;;;;;5075169;28;20245;-69
2022/04/06 02:52:33;;;;;;;11.80;5.57;;;6.50;99.90;;;;;;5075014;28;20248;-68
2022/04/06 02:55:00;;;;;;;10.30;6.60;;;6.50;99.90;;;;;;5072480;28;20233;-68
2022/04/06 02:57:27;;;;;;;11.63;5.90;;;6.40;99.90;;;;;;5069465;28;20713;-69
2022/04/06 02:59:54;;;;;;;11.03;6.77;;;6.40;99.90;;;;;;5057041;28;20795;-68
2022/04/06 03:02:21;;;;;;;10.67;6.60;;;6.40;99.90;;;;;;5076928;28;20288;-69
2022/04/06 03:04:49;;;;;;;12.93;7.40;;;6.30;99.90;;;;;;5075985;28;20252;-68
2022/04/06 03:07:19;;;;;;;10.07;6.73;;;6.40;99.90;;;;;;5060984;28;20210;-68
2022/04/06 03:09:46;;;;;;;13.10;7.37;;;6.30;99.90;;;;;;5076112;28;20548;-67
2022/04/06 03:12:13;;;;;;;15.03;7.53;;;6.30;99.90;;;;;;5074544;28;20209;-68
2022/04/06 03:14:40;;;;;;;14.93;8.30;;;6.30;99.90;;;;;;5076274;28;20213;-68
2022/04/06 03:17:07;;;;;;;12.27;7.80;;;6.30;99.90;;;;;;5075288;28;20288;-68
2022/04/06 03:19:34;;;;;;;13.33;7.63;;;6.30;99.90;;;;;;5075673;28;20686;-68
2022/04/06 03:22:02;;;;;;;11.57;7.10;;;6.20;99.90;;;;;;5062995;28;20260;-68
2022/04/06 03:24:29;;;;;;;12.23;6.93;;;6.20;99.90;;;;;;5063964;28;20232;-68
2022/04/06 03:26:56;;;;;;;12.00;7.40;;;6.20;99.90;;;;;;5074335;28;20209;-68
2022/04/06 03:29:23;;;;;;;12.00;7.00;;;6.10;99.90;;;;;;5073675;28;20222;-68
2022/04/06 03:31:50;;;;;;;14.40;7.43;;;6.10;99.90;;;;;;5075117;28;20204;-68
2022/04/06 03:34:17;;;;;;;10.70;7.33;;;6.10;99.90;;;;;;5073384;28;20204;-68
2022/04/06 03:36:43;;;;;;;9.50;6.80;;;6.00;99.90;;;;;;5066549;28;20220;-68
2022/04/06 03:39:12;;;;;;;8.77;6.57;;;6.00;99.90;;;;;;5059026;28;20604;-68
2022/04/06 03:41:39;;;;;;;9.03;6.20;;;6.00;99.90;;;;;;5070197;28;20224;-68
2022/04/06 03:44:05;;;;;;;9.83;6.63;;;6.00;99.90;;;;;;5074940;28;20231;-68
2022/04/06 03:46:33;;;;;;;9.70;6.43;;;6.00;99.90;;;;;;5072553;28;20261;-68
2022/04/06 03:48:59;;;;;;;9.30;6.60;;;6.00;99.90;;;;;;5061169;28;20240;-68
2022/04/06 03:51:26;;;;;;;9.40;6.33;;;5.90;99.90;;;;;;5074381;28;20259;-68
2022/04/06 03:53:53;;;;;;;11.80;7.40;;;5.90;99.90;;;;;;5068384;28;20214;-68
2022/04/06 03:56:21;;;;;;;13.47;7.03;;;5.90;99.90;;;;;;5055437;28;20213;-68
2022/04/06 03:58:48;;;;;;;10.60;7.57;;;5.90;99.90;;;;;;5071586;28;20209;-68
2022/04/06 04:01:16;;;;;;;9.53;7.07;;;5.90;99.90;;;;;;5075450;28;20264;-68
2022/04/06 04:03:42;;;;;;;11.30;7.33;;;6.00;99.90;;;;;;5074013;28;20212;-68
2022/04/06 04:06:09;;;;;;;10.43;7.60;;;6.00;99.90;;;;;;5071938;28;20252;-69
2022/04/06 04:08:37;;;;;;;9.83;7.43;;;6.00;99.90;;;;;;5074295;28;20282;-68
2022/04/06 04:11:04;;;;;;;11.80;8.63;;;6.00;99.90;;;;;;5068575;28;20736;-68
2022/04/06 04:13:32;;;;;;;11.57;7.87;;;6.00;99.90;;;;;;5066401;28;20634;-68
2022/04/06 04:15:59;;;;;;;11.10;7.70;;;6.10;99.90;;;;;;5065591;28;20293;-68
2022/04/06 04:18:26;;;;;;;11.53;8.60;;;6.00;99.90;;;;;;5073179;28;20209;-68
2022/04/06 04:21:31;;;;;;;14.97;8.83;;;6.10;99.90;;;;;;5074263;28;20255;-68
2022/04/06 04:23:40;;;;;;;13.30;8.20;;;6.10;99.90;;;;;;5063593;28;20248;-68
2022/04/06 04:26:07;;;;;;;12.70;8.17;;;6.10;99.90;;;;;;5070565;28;20293;-68
2022/04/06 04:28:35;;;;;;;13.70;8.00;;;6.10;99.90;;;;;;5074784;28;20662;-67
2022/04/06 04:31:02;;;;;;;11.70;7.93;;;6.10;99.90;;;;;;5074651;28;20216;-68
2022/04/06 04:33:29;;;;;;;9.83;7.57;;;6.00;99.90;;;;;;5073753;28;20281;-68
2022/04/06 04:35:56;;;;;;;10.47;7.97;;;5.90;99.90;;;;;;5061030;28;20206;-69
2022/04/06 04:38:23;;;;;;;12.00;7.53;;;5.90;99.90;;;;;;5071794;28;20296;-68
2022/04/06 04:40:51;;;;;;;10.40;7.33;;;5.90;99.90;;;;;;5063292;28;20654;-68
2022/04/06 04:43:17;;;;;;;9.27;7.37;;;5.90;99.90;;;;;;5073513;28;20308;-68
2022/04/06 04:45:46;;;;;;;8.87;7.07;;;5.90;99.90;;;;;;5073182;28;20236;-69
2022/04/06 04:48:13;;;;;;;10.40;6.57;;;5.80;99.90;;;;;;5066250;28;20202;-69
2022/04/06 04:50:39;;;;;;;8.50;6.37;;;5.80;99.90;;;;;;5066849;28;20975;-68
2022/04/06 04:53:06;;;;;;;9.03;6.50;;;5.80;99.90;;;;;;5068102;28;20265;-68
2022/04/06 04:55:33;;;;;;;6.50;5.53;;;5.80;99.90;;;;;;5064897;28;20202;-68
2022/04/06 04:58:00;;;;;;;8.00;5.43;;;5.80;99.90;;;;;;5063816;28;20245;-70
2022/04/06 05:00:27;;;;;;;7.40;5.10;;;5.80;99.90;;;;;;5068347;28;20246;-68
2022/04/06 05:02:55;;;;;;;5.70;4.87;;;5.80;99.90;;;;;;5073900;28;20279;-68
2022/04/06 05:05:23;;;;;;;6.80;5.47;;;5.80;99.90;;;;;;5071306;28;20217;-67
2022/04/06 05:07:50;;;;;;;8.17;5.10;;;5.80;99.90;;;;;;5074231;28;20220;-69
2022/04/06 05:10:17;;;;;;;8.13;6.17;;;5.80;99.90;;;;;;5074037;28;20237;-68
2022/04/06 05:12:45;;;;;;;9.33;6.73;;;5.80;99.90;;;;;;5072404;28;20249;-68
2022/04/06 05:15:13;;;;;;;10.33;7.03;;;5.80;99.90;;;;;;5065267;28;20216;-68
2022/04/06 05:17:40;;;;;;;6.97;6.13;;;5.90;99.90;;;;;;5070888;28;20213;-69
2022/04/06 05:20:10;;;;;;;8.10;6.10;;;5.80;99.90;;;;;;5073182;28;20649;-69
2022/04/06 05:22:37;;;;;;;8.73;6.17;;;5.80;99.90;;;;;;5072628;28;20233;-68
2022/04/06 05:25:07;;;;;;;8.07;5.97;;;5.80;99.90;;;;;;5072781;28;20220;-68
2022/04/06 05:27:34;;;;;;;6.67;5.40;;;5.80;99.90;;;;;;5070589;28;20205;-68
2022/04/06 05:30:01;;;;;;;9.87;7.03;;;5.80;99.90;;;;;;5072929;28;20216;-68
2022/04/06 05:32:28;;;;;;;9.97;6.90;;;5.80;99.90;;;;;;5061101;28;20330;-69
2022/04/06 05:34:55;;;;;;;8.63;6.23;;;5.80;99.90;;;;;;5053112;28;20675;-69
2022/04/06 05:37:24;;;;;;;10.47;6.70;;;5.80;99.90;;;;;;5072876;28;20205;-69
2022/04/06 05:39:51;;;;;;;8.97;6.47;;;5.80;99.90;;;;;;5058889;28;20210;-68
2022/04/06 05:42:18;;;;;;;9.87;7.13;;;5.80;99.90;;;;;;5072235;28;20205;-69
2022/04/06 05:44:47;;;;;;;10.70;6.73;;;5.80;99.90;;;;;;5063923;28;20312;-68
2022/04/06 05:47:13;;;;;;;9.73;7.10;;;5.80;99.90;;;;;;5072821;28;20251;-69
2022/04/06 05:49:40;;;;;;;10.07;7.07;;;5.80;99.90;;;;;;5072475;28;20220;-69
2022/04/06 05:52:08;;;;;;;8.17;6.47;;;5.80;99.90;;;;;;5073177;28;20197;-69
2022/04/06 05:54:36;;;;;;;9.97;7.30;;;5.80;99.90;;;;;;5070240;28;20228;-69
2022/04/06 05:57:04;;;;;;;9.23;6.13;;;5.80;99.90;;;;;;5072236;28;20662;-67
2022/04/06 05:59:31;;;;;;;13.50;7.40;;;5.80;99.90;;;;;;5072732;28;20283;-69
2022/04/06 06:01:58;;;;;;;8.43;6.40;;;5.90;99.90;;;;;;5071515;28;20205;-69
2022/04/06 06:04:25;;;;;;;8.80;5.40;;;5.90;99.90;;;;;;5060435;28;20261;-68
2022/04/06 06:06:52;;;;;;;9.67;6.27;;;5.90;99.90;;;;;;5071102;28;20259;-69
2022/04/06 06:09:19;;;;;;;9.67;6.20;;;5.90;99.90;;;;;;5067710;28;20300;-69
2022/04/06 06:11:47;;;;;;;10.07;6.80;;;5.90;99.90;;;;;;5067387;28;20197;-68
2022/04/06 06:14:15;;;;;;;8.50;5.57;;;5.90;99.90;;;;;;5064381;28;20702;-69
2022/04/06 06:16:41;;;;;;;7.40;5.17;;;6.00;99.90;;;;;;5062450;28;20209;-68
2022/04/06 06:19:08;;;;;;;5.50;4.90;;;6.00;99.90;;;;;;5061711;28;20201;-69
2022/04/06 06:21:35;;;;;;;8.57;5.20;;;6.00;99.90;;;;;;5064473;28;21263;-69
2022/04/06 06:24:05;;;;;;;6.77;4.83;;;6.00;99.90;;;;;;5058805;28;20237;-68
2022/04/06 06:26:32;;;;;;;9.00;5.00;;;6.10;99.90;;;;;;5059490;28;20254;-69
2022/04/06 06:29:00;;;;;;;7.33;4.67;;;6.10;99.90;;;;;;5063207;28;20201;-68
2022/04/06 06:31:29;;;;;;;8.30;4.63;;;6.10;99.90;;;;;;5057621;28;20297;-68
2022/04/06 06:33:55;;;;;;;9.40;6.27;;;6.20;99.90;;;;;;5066609;28;20588;-69
2022/04/06 06:36:23;;;;;;;7.60;5.03;;;6.20;99.90;;;;;;5064682;28;20210;-69
2022/04/06 06:38:51;;;;;;;5.97;4.17;;;6.20;99.90;;;;;;5071366;28;20292;-68
2022/04/06 06:41:20;;;;;;;5.23;3.30;;;6.20;99.90;;;;;;5067785;28;20575;-68
2022/04/06 06:43:48;;;;;;;3.90;3.00;;;6.30;99.90;;;;;;5066823;28;20209;-69
2022/04/06 06:46:18;;;;;;;5.33;3.23;;;6.30;99.90;;;;;;5059538;28;20611;-71
2022/04/06 06:48:49;;;;;;;5.53;3.43;;;6.30;99.90;;;;;;5062388;28;20214;-70
2022/04/06 06:51:17;;;;;;;7.40;4.07;;;6.30;99.90;;;;;;5057856;28;20245;-68
2022/04/06 06:53:45;;;;;;;9.00;4.47;;;6.30;99.90;;;;;;5058737;28;20232;-69
2022/04/06 06:56:12;;;;;;;7.67;4.20;;;6.20;99.90;;;;;;5057215;28;20252;-69
2022/04/06 06:58:39;;;;;;;9.00;4.63;;;6.20;99.90;;;;;;5059721;28;20233;-68
2022/04/06 07:01:06;;;;;;;7.77;4.60;;;6.20;99.90;;;;;;5056279;28;20210;-68
2022/04/06 07:03:34;;;;;;;10.27;5.03;;;6.20;99.90;;;;;;5068422;28;20247;-71
2022/04/06 07:06:01;;;;;;;8.53;4.87;;;6.20;99.90;;;;;;5073856;28;20303;-67
2022/04/06 07:08:28;;;;;;;7.37;4.90;;;6.20;99.90;;;;;;5073687;28;20516;-68
2022/04/06 07:10:55;;;;;;;11.33;5.70;;;6.20;99.90;;;;;;5074258;28;20209;-68
2022/04/06 07:13:22;;;;;;;7.67;5.03;;;6.20;99.90;;;;;;5072418;28;20237;-68
2022/04/06 07:15:49;;;;;;;9.27;5.70;;;6.30;99.90;;;;;;5063524;28;20198;-69
2022/04/06 07:18:18;;;;;;;11.30;5.80;;;6.30;99.90;;;;;;5071712;28;20213;-71
2022/04/06 07:20:47;;;;;;;12.03;5.60;;;6.30;99.90;;;;;;5068547;28;20229;-67
2022/04/06 07:23:14;;;;;;;8.83;5.53;;;6.30;99.90;;;;;;5060917;28;20301;-68
2022/04/06 07:25:41;;;;;;;8.27;5.27;;;6.40;99.90;;;;;;5074986;28;20213;-67
2022/04/06 07:28:08;;;;;;;8.40;5.67;;;6.30;99.90;;;;;;5062914;28;20570;-68
2022/04/06 07:30:35;;;;;;;7.23;6.00;;;6.40;99.90;;;;;;5064769;28;21276;-68
2022/04/06 07:33:02;;;;;;;8.07;5.43;;;6.40;99.90;;;;;;5068918;28;20584;-69
2022/04/06 07:35:31;;;;;;;10.67;6.70;;;6.40;99.90;;;;;;5061668;28;20206;-69
2022/04/06 07:37:59;;;;;;;8.00;5.93;;;6.40;99.90;;;;;;5069635;28;20229;-71
2022/04/06 07:40:26;;;;;;;7.23;6.30;;;6.40;99.90;;;;;;5075018;28;20265;-70
2022/04/06 07:42:53;;;;;;;10.00;8.17;;;6.50;99.90;;;;;;5073746;28;20244;-68
2022/04/06 07:45:24;;;;;;;7.73;6.27;;;6.40;99.90;;;;;;5067085;28;20631;-69
2022/04/06 07:47:52;;;;;;;8.50;6.07;;;6.40;99.90;;;;;;5066655;28;20202;-70
2022/04/06 07:50:20;;;;;;;6.77;5.07;;;6.30;99.90;;;;;;5072123;28;20219;-68
2022/04/06 07:52:47;;;;;;;7.57;5.97;;;6.30;99.90;;;;;;5056076;28;20255;-70
2022/04/06 07:55:15;;;;;;;6.90;5.33;;;6.20;99.90;;;;;;5063819;28;20293;-70
2022/04/06 07:57:42;;;;;;;6.67;5.37;;;6.10;99.90;;;;;;5074037;28;20205;-69
2022/04/06 08:00:11;;;;;;;8.23;5.83;;;6.10;99.90;;;;;;5069570;28;20702;-69
2022/04/06 08:02:38;;;;;;;8.73;5.93;;;6.00;99.90;;;;;;5064889;28;20198;-70
2022/04/06 08:05:06;;;;;;;9.83;7.00;;;6.00;99.90;;;;;;5073372;28;20288;-70
2022/04/06 08:07:33;;;;;;;7.90;6.37;;;6.00;99.90;;;;;;5071915;28;20285;-69
2022/04/06 08:10:00;;;;;;;9.40;6.83;;;6.10;99.90;;;;;;5068275;28;20296;-70
2022/04/06 08:12:28;;;;;;;9.80;7.07;;;6.10;99.90;;;;;;5069348;28;20205;-70
2022/04/06 08:14:55;;;;;;;9.17;6.97;;;6.10;99.90;;;;;;5069387;28;20248;-69
2022/04/06 08:17:23;;;;;;;8.10;7.30;;;6.10;99.90;;;;;;5069359;28;20859;-71
2022/04/06 08:19:50;;;;;;;8.33;7.00;;;6.10;99.90;;;;;;5063077;28;20206;-69
2022/04/06 08:22:17;;;;;;;7.70;6.73;;;6.10;99.90;;;;;;5069368;28;20304;-70
2022/04/06 08:24:44;;;;;;;9.97;7.13;;;6.10;99.90;;;;;;5057006;28;20249;-70
2022/04/06 08:27:11;;;;;;;7.97;6.50;;;6.20;99.90;;;;;;5063318;28;20240;-68
2022/04/06 08:29:39;;;;;;;9.03;7.70;;;6.10;99.90;;;;;;5059637;28;20662;-70
2022/04/06 08:32:07;;;;;;;9.43;8.03;;;6.20;99.90;;;;;;5064181;28;20283;-74
2022/04/06 08:34:34;;;;;;;11.63;9.27;;;6.20;99.90;;;;;;5068182;28;20573;-75
2022/04/06 08:37:02;;;;;;;9.63;8.63;;;6.20;99.90;;;;;;5076612;28;20248;-72
2022/04/06 08:39:29;;;;;;;9.03;7.37;;;6.20;99.90;;;;;;5059101;28;20271;-72
2022/04/06 08:41:56;;;;;;;9.10;8.03;;;6.20;99.90;;;;;;5068931;28;20210;-73
2022/04/06 08:44:24;;;;;;;8.50;7.60;;;6.20;99.90;;;;;;5073337;28;20312;-73
2022/04/06 08:46:52;;;;;;;9.90;8.13;;;6.20;99.90;;;;;;5059849;28;20251;-73
2022/04/06 08:49:22;;;;;;;8.10;7.17;;;6.10;99.90;;;;;;5064174;28;20232;-71
2022/04/06 08:51:49;;;;;;;8.60;7.50;;;6.10;99.90;;;;;;5066139;28;20209;-74
2022/04/06 08:54:16;;;;;;;12.63;9.70;;;6.00;99.90;;;;;;5066661;28;20216;-72
2022/04/06 08:56:44;;;;;;;9.30;8.30;;;6.10;99.90;;;;;;5061569;28;20237;-73
2022/04/06 08:59:12;;;;;;;9.43;8.33;;;6.20;99.90;;;;;;5064238;28;20201;-66
2022/04/06 09:01:39;;;;;;;9.77;8.47;;;6.30;99.90;;;;;;5072408;28;20264;-69
2022/04/06 09:04:08;;;;;;;12.47;9.43;;;6.30;99.90;;;;;;5070634;28;20263;-67
2022/04/06 09:06:40;;;;;;;12.83;9.50;;;6.30;99.90;;;;;;5061781;28;20710;-66
2022/04/06 09:09:09;;;;;;;13.83;9.23;;;6.30;99.90;;;;;;5059651;28;20230;-66
2022/04/06 09:11:42;;;;;;;10.37;8.93;;;6.40;99.90;;;;;;5054318;28;20248;-68
2022/04/06 09:14:09;;;;;;;11.60;9.67;;;6.30;99.90;;;;;;5058338;28;20215;-67
2022/04/06 09:16:36;;;;;;;9.77;8.27;;;6.40;99.90;;;;;;5055218;28;20217;-68
2022/04/06 09:19:10;;;;;;;11.10;8.93;;;6.40;99.90;;;;;;5059462;28;20639;-66
2022/04/06 09:21:40;;;;;;;11.00;9.30;;;6.40;99.90;;;;;;5056320;28;20245;-67
2022/04/06 09:24:14;;;;;;;10.63;8.97;;;6.40;99.90;;;;;;5059655;28;20220;-68
2022/04/06 09:26:41;;;;;;;12.83;9.60;;;6.40;99.90;;;;;;5069481;28;20584;-67
2022/04/06 09:29:11;;;;;;;11.70;9.07;;;6.40;99.90;;;;;;5070010;28;20313;-67
2022/04/06 09:31:39;;;;;;;10.50;8.60;;;6.30;99.90;;;;;;5068316;28;20224;-67
2022/04/06 09:34:11;;;;;;;10.47;8.50;;;6.40;99.90;;;;;;5060904;28;20303;-68
2022/04/06 09:36:38;;;;;;;10.20;7.90;;;6.40;99.90;;;;;;5065256;28;20222;-67
2022/04/06 09:39:06;;;;;;;9.00;7.77;;;6.30;99.90;;;;;;5065655;28;20219;-68
2022/04/06 09:41:34;;;;;;;8.53;7.47;;;6.40;99.90;;;;;;5070888;28;20211;-67
2022/04/06 09:44:08;;;;;;;9.53;8.20;;;6.40;99.90;;;;;;5065021;28;20209;-67
2022/04/06 09:49:25;;;;;;;11.17;7.57;;;6.50;99.90;;;;;;5058575;28;20242;-68
2022/04/06 09:51:53;;;;;;;8.33;6.77;;;6.40;99.90;;;;;;5066751;28;20202;-69
2022/04/06 09:54:27;;;;;;;8.10;7.30;;;6.40;99.90;;;;;;5068782;28;20259;-68
2022/04/06 09:56:55;;;;;;;7.93;6.73;;;6.40;99.90;;;;;;5068594;28;20258;-68
2022/04/06 09:59:23;;;;;;;8.70;7.37;;;6.40;99.90;;;;;;5069599;28;20229;-68
2022/04/06 10:01:52;;;;;;;8.00;7.03;;;6.50;99.90;;;;;;5071921;28;20637;-68
2022/04/06 10:04:24;;;;;;;9.50;7.40;;;6.50;99.90;;;;;;5059355;28;20206;-66
2022/04/06 10:06:51;;;;;;;8.10;7.30;;;6.60;99.90;;;;;;5068485;28;20648;-66
2022/04/06 10:09:18;;;;;;;11.70;8.10;;;6.60;99.90;;;;;;5072337;28;20212;-70
2022/04/06 10:11:45;;;;;;;10.80;9.20;;;6.50;99.90;;;;;;5070474;28;20297;-69
2022/04/06 10:14:12;;;;;;;10.50;7.90;;;6.50;99.90;;;;;;5066945;28;20667;-70
2022/04/06 10:16:40;;;;;;;9.70;8.70;;;6.50;99.90;;;;;;5069741;28;20208;-69
2022/04/06 10:19:13;;;;;;;9.93;8.60;;;6.60;99.90;;;;;;5066385;28;20243;-69
2022/04/06 10:21:53;;;;;;;12.10;9.37;;;6.70;99.90;;;;;;5075188;28;20634;-69
2022/04/06 10:24:29;;;;;;;12.60;9.97;;;6.80;99.90;;;;;;5074888;28;20610;-68
2022/04/06 10:27:07;;;;;;;10.53;9.20;;;6.90;99.90;;;;;;5069312;28;20224;-69
2022/04/06 10:30:08;;;;;;;10.47;9.37;;;7.00;99.90;;;;;;5065892;28;20232;-68
2022/04/06 10:32:35;;;;;;;10.27;8.87;;;7.10;99.90;;;;;;5077287;28;20202;-67
2022/04/06 10:35:18;;;;;;;10.37;9.27;;;7.20;99.90;;;;;;5069904;28;20311;-66
2022/04/06 10:38:08;;;;;;;11.00;9.80;;;7.30;99.90;;;;;;5067995;28;20201;-68
2022/04/06 10:40:56;;;;;;;11.07;9.87;;;7.40;99.90;;;;;;5066738;28;20213;-69
2022/04/06 10:43:50;;;;;;;10.90;9.63;;;7.50;99.90;;;;;;5071889;28;20226;-69
2022/04/06 10:46:18;;;;;;;10.50;8.87;;;7.60;99.90;;;;;;5067756;28;20248;-66
2022/04/06 10:48:58;;;;;;;11.10;9.87;;;7.80;99.90;;;;;;5061740;28;20566;-68
2022/04/06 10:51:29;;;;;;;11.57;9.67;;;8.00;99.90;;;;;;5073819;28;20288;-70
2022/04/06 10:53:58;;;;;;;11.73;9.77;;;8.20;99.90;;;;;;5059023;28;20212;-67
2022/04/06 10:56:25;;;;;;;10.63;9.53;;;8.30;99.90;;;;;;5073240;28;20220;-67
2022/04/06 10:59:09;;;;;;;12.33;9.77;;;8.40;99.90;;;;;;5065633;28;20339;-66
2022/04/06 11:01:38;;;;;;;11.77;10.50;;;8.50;99.90;;;;;;5061725;28;20237;-65
2022/04/06 11:04:09;;;;;;;12.73;11.10;;;8.70;99.90;;;;;;5062117;28;20289;-69
2022/04/06 11:06:59;;;;;;;11.50;9.70;;;8.70;99.90;;;;;;5064294;28;20210;-66
2022/04/06 11:12:16;;;;;;;11.30;9.73;;;9.00;99.90;;;;;;5069376;28;20271;-69
2022/04/06 11:14:44;;;;;;;13.53;10.10;;;9.20;99.90;;;;;;5065165;28;20209;-68
2022/04/06 11:17:37;;;;;;;12.57;10.17;;;9.20;99.90;;;;;;5071044;28;20207;-67
2022/04/06 11:20:06;;;;;;;11.83;10.50;;;9.30;99.90;;;;;;5065731;28;20288;-66
2022/04/06 11:22:33;;;;;;;12.30;10.90;;;9.30;99.90;;;;;;5067849;28;20784;-67
2022/04/06 11:25:02;;;;;;;11.63;10.20;;;9.40;99.90;;;;;;5062367;28;20667;-66
2022/04/06 11:27:29;;;;;;;12.87;10.73;;;9.40;99.90;;;;;;5062882;28;20224;-68
2022/04/06 11:30:00;;;;;;;12.17;10.63;;;9.40;99.90;;;;;;5068798;28;20237;-69
2022/04/06 11:32:27;;;;;;;14.03;11.17;;;9.40;99.90;;;;;;5065274;28;20550;-66
2022/04/06 11:35:00;;;;;;;13.10;10.50;;;9.40;99.90;;;;;;5063545;28;20710;-65
2022/04/06 11:37:27;;;;;;;12.10;10.80;;;9.40;99.90;;;;;;5065332;28;20201;-69
2022/04/06 11:39:58;;;;;;;12.30;10.73;;;9.50;99.90;;;;;;5055251;28;20300;-69
2022/04/06 11:42:28;;;;;;;15.10;11.23;;;9.50;99.90;;;;;;5063669;28;20209;-70
2022/04/06 11:44:57;;;;;;;14.40;11.50;;;9.50;99.90;;;;;;5072488;28;20244;-69
2022/04/06 11:47:29;;;;;;;15.10;12.03;;;9.60;99.90;;;;;;5069646;28;20693;-69
2022/04/06 11:49:56;;;;;;;11.93;10.70;;;9.50;99.90;;;;;;5071222;28;20252;-69
2022/04/06 11:52:24;;;;;;;13.50;11.80;;;9.50;99.90;;;;;;5071787;28;20205;-67
2022/04/06 11:54:53;;;;;;;13.83;11.70;;;9.70;99.90;;;;;;5073678;28;20309;-68
2022/04/06 11:57:20;;;;;;;15.63;12.47;;;9.70;99.90;;;;;;5074079;28;20198;-67
2022/04/06 11:59:56;;;;;;;15.17;12.43;;;9.70;99.90;;;;;;5072730;28;20239;-67
2022/04/06 12:02:23;;;;;;;15.07;12.27;;;9.80;99.90;;;;;;5065900;28;20198;-68
2022/04/06 12:05:04;;;;;;;17.27;13.73;;;9.80;99.90;;;;;;5060469;28;20308;-68
2022/04/06 12:07:30;;;;;;;14.97;13.40;;;9.90;99.90;;;;;;5068777;28;20223;-67
2022/04/06 12:09:58;;;;;;;15.33;13.30;;;10.00;99.90;;;;;;5063616;28;20291;-67
2022/04/06 12:12:25;;;;;;;16.33;13.43;;;10.10;99.90;;;;;;5065571;28;20324;-68
2022/04/06 12:14:53;;;;;;;17.27;13.10;;;10.20;99.90;;;;;;5062138;28;20202;-68
2022/04/06 12:17:21;;;;;;;14.37;12.50;;;10.30;99.90;;;;;;5061729;28;20210;-68
2022/04/06 12:19:48;;;;;;;14.50;12.87;;;10.50;99.90;;;;;;5061138;28;20239;-68
2022/04/06 12:22:16;;;;;;;15.13;12.93;;;10.50;99.90;;;;;;5059669;28;20579;-65
2022/04/06 12:24:44;;;;;;;16.23;12.67;;;10.60;99.90;;;;;;5059630;28;20237;-67
2022/04/06 12:27:11;;;;;;;16.30;13.07;;;10.70;99.90;;;;;;5056047;28;20646;-68
2022/04/06 12:29:39;;;;;;;15.10;12.97;;;10.80;99.90;;;;;;5062396;28;20236;-67
2022/04/06 12:32:08;;;;;;;14.07;12.43;;;10.90;99.90;;;;;;5055933;28;20206;-69
2022/04/06 12:34:39;;;;;;;12.97;11.23;;;11.00;99.90;;;;;;5056471;28;20241;-69
2022/04/06 12:39:54;;;;;;;11.37;9.13;;;11.00;99.90;;;;;;5064976;28;20203;-71
2022/04/06 12:42:22;;;;;;;9.43;8.43;;;11.10;99.90;;;;;;5063032;28;20209;-69
2022/04/06 12:44:57;;;;;;;12.63;9.60;;;11.20;99.90;;;;;;5057441;28;20205;-68
2022/04/06 12:47:24;;;;;;;7.13;6.47;;;11.30;99.90;;;;;;5063065;28;20747;-69
2022/04/06 12:50:11;;;;;;;7.13;6.07;;;11.40;99.90;;;;;;5063342;28;20210;-69
2022/04/06 12:52:38;;;;;;;5.77;5.17;;;11.50;99.90;;;;;;5063857;28;20754;-69
2022/04/06 12:55:07;;;;;;;5.80;5.30;;;11.70;99.90;;;;;;5066446;28;20202;-68
2022/04/06 12:57:37;;;;;;;5.07;4.43;;;11.90;99.90;;;;;;5066206;28;20208;-70
2022/04/06 13:00:08;;;;;;;5.30;4.63;;;12.00;99.90;;;;;;5061054;28;20208;-69
2022/04/06 13:02:37;;;;;;;5.93;4.90;;;12.10;99.90;;;;;;5063493;28;20198;-69
2022/04/06 13:05:07;;;;;;;5.23;4.73;;;12.20;99.90;;;;;;5066085;28;20304;-69
2022/04/06 13:07:36;;;;;;;4.70;4.30;;;12.30;99.90;;;;;;5070780;28;20766;-68
2022/04/06 13:10:06;;;;;;;6.07;4.90;;;12.50;99.90;;;;;;5071603;28;20228;-68